Time;durP1;ratioP1;P1;durP2;ratioP2;P2;SDS_P1;SDS_P2;PMS_P1;PMS_P2;Temp;Humidity;BMP_temperature;BMP_pressure;BME280_temperature;BME280_humidity;BME280_pressure;Samples;Min_cycle;Max_cycle;Signal;HPM_P1;HPM_P2
2021/09/02 00:01:42;;;;;;;;;;;;;;;15.30;100.00;100667.84;5075482;28;19924;-78
2021/09/02 00:04:09;;;;;;;;;;;;;;;15.59;100.00;100674.81;5074978;28;19962;-78
2021/09/02 00:06:37;;;;;;;;;;;;;;;15.55;100.00;100674.88;5091736;28;19924;-79
2021/09/02 00:09:05;;;;;;;;;;;;;;;15.74;100.00;100670.63;5058541;28;19924;-79
2021/09/02 00:11:33;;;;;;;;;;;;;;;15.69;100.00;100671.91;5076113;28;19931;-79
2021/09/02 00:13:59;;;;;;;;;;;;;;;15.63;100.00;100670.75;5075828;28;19924;-79
2021/09/02 00:16:26;;;;;;;;;;;;;;;15.76;100.00;100680.28;5058322;28;19924;-79
2021/09/02 00:18:53;;;;;;;;;;;;;;;15.94;100.00;100674.44;5074758;28;19946;-79
2021/09/02 00:21:21;;;;;;;;;;;;;;;15.78;100.00;100672.19;5108105;28;19948;-78
2021/09/02 00:23:48;;;;;;;;;;;;;;;15.98;100.00;100675.97;5076055;28;19924;-79
2021/09/02 00:26:15;;;;;;;;;;;;;;;15.73;100.00;100675.50;5107906;28;19974;-79
2021/09/02 00:28:42;;;;;;;;;;;;;;;15.76;100.00;100669.00;5074604;28;19924;-79
2021/09/02 00:31:09;;;;;;;;;;;;;;;15.77;100.00;100664.97;5108127;28;19948;-79
2021/09/02 00:33:36;;;;;;;;;;;;;;;15.77;100.00;100667.78;5075855;28;19925;-79
2021/09/02 00:36:03;;;;;;;;;;;;;;;15.86;100.00;100667.25;5108003;28;20011;-79
2021/09/02 00:38:32;;;;;;;;;;;;;;;15.98;100.00;100664.69;5090893;28;20013;-79
2021/09/02 00:40:59;;;;;;;;;;;;;;;15.94;100.00;100660.34;5057663;28;19935;-79
2021/09/02 00:43:27;;;;;;;;;;;;;;;15.36;100.00;100655.72;5107868;28;19925;-78
2021/09/02 00:45:54;;;;;;;;;;;;;;;15.71;100.00;100651.75;5074049;28;19967;-79
2021/09/02 00:48:21;;;;;;;;;;;;;;;15.67;100.00;100654.63;5074113;28;20299;-78
2021/09/02 00:50:48;;;;;;;;;;;;;;;15.60;100.00;100654.69;5074075;28;20033;-79
2021/09/02 00:53:15;;;;;;;;;;;;;;;15.84;100.00;100653.59;5053522;28;20020;-79
2021/09/02 00:55:42;;;;;;;;;;;;;;;15.87;100.00;100647.13;5072416;28;19959;-78
2021/09/02 00:58:10;;;;;;;;;;;;;;;15.92;100.00;100641.00;5075360;28;19950;-79
2021/09/02 01:00:41;;;;;;;;;;;;;;;16.09;100.00;100637.19;5074900;28;19924;-79
2021/09/02 01:03:08;;;;;;;;;;;;;;;15.87;100.00;100644.28;5057446;28;20015;-79
2021/09/02 01:05:36;;;;;;;;;;;;;;;15.94;100.00;100629.31;5059597;28;19979;-79
2021/09/02 01:08:05;;;;;;;;;;;;;;;15.91;100.00;100625.34;5073812;28;19924;-79
2021/09/02 01:10:32;;;;;;;;;;;;;;;16.05;100.00;100619.50;5072586;28;19963;-79
2021/09/02 01:12:59;;;;;;;;;;;;;;;16.09;100.00;100619.44;5073595;28;19947;-79
2021/09/02 01:15:27;;;;;;;;;;;;;;;16.12;100.00;100612.97;5057375;28;19971;-79
2021/09/02 01:17:55;;;;;;;;;;;;;;;16.02;100.00;100614.69;5074638;28;20554;-79
2021/09/02 01:20:23;;;;;;;;;;;;;;;16.20;100.00;100611.66;5073505;28;20015;-79
2021/09/02 01:22:51;;;;;;;;;;;;;;;16.14;100.00;100605.69;5073209;28;19932;-79
2021/09/02 01:25:20;;;;;;;;;;;;;;;15.86;100.00;100603.25;5074734;28;20517;-79
2021/09/02 01:27:49;;;;;;;;;;;;;;;15.51;100.00;100600.09;5073207;28;19924;-78
2021/09/02 01:30:16;;;;;;;;;;;;;;;15.67;100.00;100592.63;5073334;28;19931;-79
2021/09/02 01:32:44;;;;;;;;;;;;;;;15.83;100.00;100590.00;5060327;28;19932;-79
2021/09/02 01:35:13;;;;;;;;;;;;;;;15.62;100.00;100590.28;5067813;28;19984;-79
2021/09/02 01:37:41;;;;;;;;;;;;;;;15.77;100.00;100590.88;5049482;28;20353;-78
2021/09/02 01:40:11;;;;;;;;;;;;;;;15.98;100.00;100594.22;5061330;28;19924;-78
2021/09/02 01:42:38;;;;;;;;;;;;;;;15.89;100.00;100587.50;5060774;28;20295;-78
2021/09/02 01:45:05;;;;;;;;;;;;;;;15.98;100.00;100593.41;5072862;28;19925;-78
2021/09/02 01:47:32;;;;;;;;;;;;;;;15.79;100.00;100586.44;5056112;28;20386;-78
2021/09/02 01:50:05;;;;;;;;;;;;;;;15.97;100.00;100589.00;5074060;28;19925;-78
2021/09/02 01:52:32;;;;;;;;;;;;;;;15.89;100.00;100590.31;5073746;28;19932;-78
2021/09/02 01:54:59;;;;;;;;;;;;;;;15.98;100.00;100594.22;5072780;28;19932;-78
2021/09/02 01:57:26;;;;;;;;;;;;;;;15.95;100.00;100586.59;5074011;28;19928;-78
2021/09/02 01:59:53;;;;;;;;;;;;;;;15.99;100.00;100592.22;5073923;28;20274;-78
2021/09/02 02:02:46;;;;;;;;;;;;;;;16.12;100.00;100596.84;5105980;28;19960;-78
2021/09/02 02:05:13;;;;;;;;;;;;;;;16.24;100.00;100587.81;5073894;28;19925;-79
2021/09/02 02:07:41;;;;;;;;;;;;;;;15.66;100.00;100591.00;5073404;28;20287;-78
2021/09/02 02:10:13;;;;;;;;;;;;;;;15.87;100.00;100593.56;5072542;28;19928;-78
2021/09/02 02:12:40;;;;;;;;;;;;;;;15.61;100.00;100597.13;5073566;28;20413;-78
2021/09/02 02:15:08;;;;;;;;;;;;;;;15.95;100.00;100600.72;5073724;28;20311;-78
2021/09/02 02:17:35;;;;;;;;;;;;;;;16.09;100.00;100594.88;5073405;28;19932;-79
2021/09/02 02:20:02;;;;;;;;;;;;;;;15.91;100.00;100599.16;5072460;28;19974;-78
2021/09/02 02:22:29;;;;;;;;;;;;;;;16.38;100.00;100600.09;5071879;28;19924;-78
2021/09/02 02:24:56;;;;;;;;;;;;;;;16.41;100.00;100605.69;5073690;28;20427;-79
2021/09/02 02:27:23;;;;;;;;;;;;;;;15.94;100.00;100607.56;5105727;28;19925;-79
2021/09/02 02:29:50;;;;;;;;;;;;;;;15.71;100.00;100604.66;5073398;28;19924;-79
2021/09/02 02:32:17;;;;;;;;;;;;;;;16.18;100.00;100600.78;5072274;28;19939;-79
2021/09/02 02:34:44;;;;;;;;;;;;;;;16.04;100.00;100600.97;5072153;28;20368;-79
2021/09/02 02:37:12;;;;;;;;;;;;;;;15.99;100.00;100598.63;5062964;28;19925;-78
2021/09/02 02:39:39;;;;;;;;;;;;;;;16.03;100.00;100601.41;5067424;28;19925;-79
2021/09/02 02:42:06;;;;;;;;;;;;;;;15.86;100.00;100606.06;5059447;28;20398;-79
2021/09/02 02:44:33;;;;;;;;;;;;;;;15.75;100.00;100599.75;5088692;28;19967;-79
2021/09/02 02:47:01;;;;;;;;;;;;;;;15.33;100.00;100605.88;5073115;28;19965;-78
2021/09/02 02:49:28;;;;;;;;;;;;;;;15.60;100.00;100595.53;5072170;28;20015;-78
2021/09/02 02:51:55;;;;;;;;;;;;;;;15.47;100.00;100605.75;5073160;28;20269;-79
2021/09/02 02:54:22;;;;;;;;;;;;;;;15.51;100.00;100600.84;5072085;28;20290;-79
2021/09/02 02:56:49;;;;;;;;;;;;;;;15.50;100.00;100598.47;5073674;28;19928;-79
2021/09/02 02:59:16;;;;;;;;;;;;;;;15.62;100.00;100601.53;5073086;28;20399;-78
2021/09/02 03:01:43;;;;;;;;;;;;;;;15.10;100.00;100591.63;5072117;28;20253;-79
2021/09/02 03:04:10;;;;;;;;;;;;;;;15.24;100.00;100585.84;5073068;28;20323;-78
2021/09/02 03:06:37;;;;;;;;;;;;;;;15.48;100.00;100584.03;5073104;28;20350;-78
2021/09/02 03:09:05;;;;;;;;;;;;;;;15.52;100.00;100579.13;5105435;28;19924;-78
2021/09/02 03:11:32;;;;;;;;;;;;;;;15.90;100.00;100569.38;5088863;28;20275;-79
2021/09/02 03:14:02;;;;;;;;;;;;;;;15.98;100.00;100580.13;5087830;28;19925;-79
2021/09/02 03:16:29;;;;;;;;;;;;;;;15.65;100.00;100577.34;5105568;28;19924;-78
2021/09/02 03:18:56;;;;;;;;;;;;;;;15.61;100.00;100571.78;5071690;28;19925;-78
2021/09/02 03:21:23;;;;;;;;;;;;;;;15.87;100.00;100570.22;5071749;28;19934;-78
2021/09/02 03:23:50;;;;;;;;;;;;;;;15.85;100.00;100562.19;5055173;28;19931;-79
2021/09/02 03:26:17;;;;;;;;;;;;;;;15.52;100.00;100557.41;5051517;28;19952;-79
2021/09/02 03:28:44;;;;;;;;;;;;;;;15.46;100.00;100561.91;5061049;28;20359;-78
2021/09/02 03:31:11;;;;;;;;;;;;;;;15.84;100.00;100556.97;5088351;28;19929;-79
2021/09/02 03:33:38;;;;;;;;;;;;;;;15.31;100.00;100551.19;5090107;28;19947;-79
2021/09/02 03:36:05;;;;;;;;;;;;;;;15.60;100.00;100547.63;5076584;28;20271;-79
2021/09/02 03:38:32;;;;;;;;;;;;;;;14.85;100.00;100550.88;5058971;28;20326;-78
2021/09/02 03:40:59;;;;;;;;;;;;;;;15.34;100.00;100556.75;5075379;28;19924;-79
2021/09/02 03:43:26;;;;;;;;;;;;;;;15.49;100.00;100552.63;5068320;28;20356;-78
2021/09/02 03:45:53;;;;;;;;;;;;;;;15.88;100.00;100552.09;5082684;28;20306;-79
2021/09/02 03:48:20;;;;;;;;;;;;;;;16.11;100.00;100555.75;5058136;28;19959;-79
2021/09/02 03:50:47;;;;;;;;;;;;;;;15.24;100.00;100557.69;5066195;28;20011;-79
2021/09/02 03:53:14;;;;;;;;;;;;;;;15.33;100.00;100554.34;5065516;28;19930;-79
2021/09/02 03:55:42;;;;;;;;;;;;;;;15.67;100.00;100553.19;5076219;28;19931;-79
2021/09/02 03:58:09;;;;;;;;;;;;;;;15.60;100.00;100560.94;5076155;28;20375;-79
2021/09/02 04:00:36;;;;;;;;;;;;;;;15.77;100.00;100557.06;5075137;28;20003;-79
2021/09/02 04:03:03;;;;;;;;;;;;;;;15.55;100.00;100559.38;5070081;28;19925;-79
2021/09/02 04:05:30;;;;;;;;;;;;;;;15.51;100.00;100558.59;5067984;28;19951;-79
2021/09/02 04:07:58;;;;;;;;;;;;;;;15.48;100.00;100567.91;5074810;28;20387;-79
2021/09/02 04:10:25;;;;;;;;;;;;;;;15.41;100.00;100562.34;5076262;28;19924;-79
2021/09/02 04:12:52;;;;;;;;;;;;;;;15.36;100.00;100574.03;5074517;28;19946;-79
2021/09/02 04:15:19;;;;;;;;;;;;;;;15.04;100.00;100562.31;5076001;28;19932;-79
2021/09/02 04:17:46;;;;;;;;;;;;;;;14.91;100.00;100566.09;5075487;28;20368;-79
2021/09/02 04:20:13;;;;;;;;;;;;;;;15.27;100.00;100567.31;5074762;28;19928;-79
2021/09/02 04:22:40;;;;;;;;;;;;;;;15.50;100.00;100565.47;5074735;28;19935;-79
2021/09/02 04:25:07;;;;;;;;;;;;;;;15.43;100.00;100557.13;5074367;28;20445;-79
2021/09/02 04:27:34;;;;;;;;;;;;;;;15.54;100.00;100554.94;5075653;28;20379;-79
2021/09/02 04:30:03;;;;;;;;;;;;;;;15.56;100.00;100552.50;5058022;28;19951;-79
2021/09/02 04:32:30;;;;;;;;;;;;;;;15.57;100.00;100554.09;5090945;28;19931;-79
2021/09/02 04:34:57;;;;;;;;;;;;;;;15.60;100.00;100544.81;5075398;28;19970;-79
2021/09/02 04:37:24;;;;;;;;;;;;;;;15.52;100.00;100545.31;5075765;28;19924;-79
2021/09/02 04:39:51;;;;;;;;;;;;;;;15.55;100.00;100548.09;5074240;28;19978;-79
2021/09/02 04:42:18;;;;;;;;;;;;;;;15.52;100.00;100550.97;5074241;28;19974;-79
2021/09/02 04:44:45;;;;;;;;;;;;;;;15.63;100.00;100548.81;5075218;28;19925;-79
2021/09/02 04:47:13;;;;;;;;;;;;;;;15.27;100.00;100551.22;5073682;28;19948;-79
2021/09/02 04:49:39;;;;;;;;;;;;;;;15.71;100.00;100556.75;5063231;28;19925;-79
2021/09/02 04:52:07;;;;;;;;;;;;;;;15.78;100.00;100553.81;5070931;28;19925;-79
2021/09/02 04:54:34;;;;;;;;;;;;;;;15.87;100.00;100556.91;5075150;28;19935;-79
2021/09/02 04:57:01;;;;;;;;;;;;;;;16.00;100.00;100560.78;5074795;28;20011;-79
2021/09/02 04:59:28;;;;;;;;;;;;;;;15.85;100.00;100558.56;5074940;28;19924;-79
2021/09/02 05:01:55;;;;;;;;;;;;;;;15.52;100.00;100563.03;5056957;28;20100;-78
2021/09/02 05:04:22;;;;;;;;;;;;;;;15.58;100.00;100564.16;5073451;28;20026;-78
2021/09/02 05:06:49;;;;;;;;;;;;;;;15.79;100.00;100558.25;5074684;28;19960;-78
2021/09/02 05:09:16;;;;;;;;;;;;;;;15.36;100.00;100559.97;5074383;28;19924;-78
2021/09/02 05:11:44;;;;;;;;;;;;;;;15.38;100.00;100551.94;5074955;28;19931;-78
2021/09/02 05:14:11;;;;;;;;;;;;;;;15.67;100.00;100558.81;5074692;28;19925;-78
2021/09/02 05:16:38;;;;;;;;;;;;;;;15.10;100.00;100551.44;5074634;28;19928;-78
2021/09/02 05:19:06;;;;;;;;;;;;;;;15.13;100.00;100557.00;5074634;28;19929;-77
2021/09/02 05:21:33;;;;;;;;;;;;;;;15.29;100.00;100565.69;5074664;28;19924;-77
2021/09/02 05:24:00;;;;;;;;;;;;;;;14.95;100.00;100553.56;5107022;28;19925;-81
2021/09/02 05:26:27;;;;;;;;;;;;;;;15.19;100.00;100560.19;5043432;28;19928;-78
2021/09/02 05:28:54;;;;;;;;;;;;;;;15.07;100.00;100564.31;5060987;28;19967;-78
2021/09/02 05:31:21;;;;;;;;;;;;;;;15.07;100.00;100563.53;5038552;28;19928;-78
2021/09/02 05:33:49;;;;;;;;;;;;;;;15.26;100.00;100552.44;5058723;28;20011;-78
2021/09/02 05:36:16;;;;;;;;;;;;;;;15.53;100.00;100559.00;5071695;28;19925;-78
2021/09/02 05:38:44;;;;;;;;;;;;;;;15.44;100.00;100553.06;5083049;28;19926;-78
2021/09/02 05:41:11;;;;;;;;;;;;;;;15.27;100.00;100544.78;5053381;28;20016;-78
2021/09/02 05:43:38;;;;;;;;;;;;;;;15.30;100.00;100543.94;5055797;28;20041;-78
2021/09/02 05:46:05;;;;;;;;;;;;;;;15.49;100.00;100551.81;5064649;28;19940;-78
2021/09/02 05:48:32;;;;;;;;;;;;;;;15.61;100.00;100549.25;5055530;28;19969;-78
2021/09/02 05:51:00;;;;;;;;;;;;;;;15.42;100.00;100551.91;5052331;28;19957;-78
2021/09/02 05:53:27;;;;;;;;;;;;;;;15.49;100.00;100555.44;5059490;28;19925;-78
2021/09/02 05:55:54;;;;;;;;;;;;;;;15.78;100.00;100553.81;5055664;28;19925;-77
2021/09/02 05:58:21;;;;;;;;;;;;;;;15.68;100.00;100554.78;5066066;28;19964;-78
2021/09/02 06:00:48;;;;;;;;;;;;;;;15.70;100.00;100557.16;5053353;28;19931;-78
2021/09/02 06:03:15;;;;;;;;;;;;;;;15.86;100.00;100558.16;5053489;28;19925;-78
2021/09/02 06:05:42;;;;;;;;;;;;;;;15.84;100.00;100562.63;5057981;28;19979;-78
2021/09/02 06:08:10;;;;;;;;;;;;;;;15.57;100.00;100564.59;5055243;28;19932;-78
2021/09/02 06:10:37;;;;;;;;;;;;;;;15.63;100.00;100563.69;5055518;28;19925;-78
2021/09/02 06:13:04;;;;;;;;;;;;;;;15.77;100.00;100557.88;5055356;28;19932;-78
2021/09/02 06:15:31;;;;;;;;;;;;;;;15.74;100.00;100574.81;5071934;28;19933;-78
2021/09/02 06:17:58;;;;;;;;;;;;;;;15.53;100.00;100569.44;5053388;28;20028;-78
2021/09/02 06:20:26;;;;;;;;;;;;;;;15.64;100.00;100570.94;5052486;28;19925;-78
2021/09/02 06:22:52;;;;;;;;;;;;;;;15.77;100.00;100562.69;5048872;28;19955;-78
2021/09/02 06:25:20;;;;;;;;;;;;;;;16.12;100.00;100567.84;5067724;28;19925;-78
2021/09/02 06:27:47;;;;;;;;;;;;;;;16.25;100.00;100566.06;5073121;28;20447;-78
2021/09/02 06:30:13;;;;;;;;;;;;;;;16.18;100.00;100558.50;5052465;28;19935;-78
2021/09/02 06:32:40;;;;;;;;;;;;;;;16.35;100.00;100545.34;5050602;28;20422;-78
2021/09/02 06:35:08;;;;;;;;;;;;;;;16.18;100.00;100543.59;5059081;28;19964;-78
2021/09/02 06:37:36;;;;;;;;;;;;;;;16.27;100.00;100541.03;5059498;28;19978;-80
2021/09/02 06:40:03;;;;;;;;;;;;;;;15.99;100.00;100541.47;5058077;28;19924;-79
2021/09/02 06:42:31;;;;;;;;;;;;;;;16.02;100.00;100544.22;5060845;28;20400;-79
2021/09/02 06:44:58;;;;;;;;;;;;;;;15.99;100.00;100542.25;5062782;28;20019;-79
2021/09/02 06:47:25;;;;;;;;;;;;;;;16.08;100.00;100545.31;5038172;28;19925;-81
2021/09/02 06:49:52;;;;;;;;;;;;;;;16.02;100.00;100544.22;5052391;28;19935;-80
2021/09/02 06:52:19;;;;;;;;;;;;;;;16.08;100.00;100550.97;5056257;28;19959;-79
2021/09/02 06:54:46;;;;;;;;;;;;;;;16.31;100.00;100546.63;5053779;28;19925;-83
2021/09/02 06:57:13;;;;;;;;;;;;;;;16.08;100.00;100550.97;5037783;28;19925;-83
2021/09/02 06:59:42;;;;;;;;;;;;;;;16.07;100.00;100548.56;5064125;28;20442;-84
2021/09/02 07:02:09;;;;;;;;;;;;;;;16.25;100.00;100549.91;5068186;28;20019;-79
2021/09/02 07:04:36;;;;;;;;;;;;;;;16.32;100.00;100551.81;5104711;28;19968;-80
2021/09/02 07:07:03;;;;;;;;;;;;;;;16.23;100.00;100555.19;5071759;28;19997;-79
2021/09/02 07:09:30;;;;;;;;;;;;;;;16.12;100.00;100557.38;5057874;28;19925;-80
2021/09/02 07:12:01;;;;;;;;;;;;;;;16.09;100.00;100552.59;5062240;28;19925;-81
2021/09/02 07:14:27;;;;;;;;;;;;;;;16.19;100.00;100560.06;5051152;28;20400;-80
2021/09/02 07:16:54;;;;;;;;;;;;;;;16.16;100.00;100548.88;5050761;28;20394;-80
2021/09/02 07:19:22;;;;;;;;;;;;;;;16.09;100.00;100555.41;5056182;28;19925;-79
2021/09/02 07:21:49;;;;;;;;;;;;;;;16.18;100.00;100558.50;5057675;28;20074;-79
2021/09/02 07:24:16;;;;;;;;;;;;;;;16.32;100.00;100553.84;5053950;28;19929;-79
2021/09/02 07:26:47;;;;;;;;;;;;;;;16.20;100.00;100558.06;5081044;28;19925;-83
2021/09/02 07:29:23;;;;;;;;;;;;;;;16.45;100.00;100557.72;5071307;28;19925;-83
2021/09/02 07:31:50;;;;;;;;;;;;;;;16.41;100.00;100562.56;5057346;28;19925;-81
2021/09/02 07:34:17;;;;;;;;;;;;;;;16.30;100.00;100567.59;5054184;28;19952;-81
2021/09/02 07:36:44;;;;;;;;;;;;;;;16.51;100.00;100568.06;5063255;28;20015;-80
2021/09/02 07:41:33;;;;;;;;;;;;;;;16.56;100.00;100558.31;5081804;28;20379;-79
2021/09/02 07:44:00;;;;;;;;;;;;;;;16.50;100.00;100551.56;5086833;28;20380;-80
2021/09/02 07:46:27;;;;;;;;;;;;;;;16.67;100.00;100556.13;5082463;28;20379;-81
2021/09/02 07:48:55;;;;;;;;;;;;;;;16.88;100.00;100552.91;5064444;28;19974;-80
2021/09/02 07:51:22;;;;;;;;;;;;;;;16.99;100.00;100545.06;5085388;28;19924;-80
2021/09/02 07:53:49;;;;;;;;;;;;;;;16.77;100.00;100546.66;5070002;28;19932;-80
2021/09/02 07:56:16;;;;;;;;;;;;;;;16.75;100.00;100549.91;5069004;28;20364;-80
2021/09/02 07:58:43;;;;;;;;;;;;;;;16.50;100.00;100549.56;5067573;28;19925;-81
2021/09/02 08:01:12;;;;;;;;;;;;;;;16.96;100.00;100545.94;5101507;28;19925;-79
2021/09/02 08:03:39;;;;;;;;;;;;;;;17.34;100.00;100541.56;5069179;28;19929;-81
2021/09/02 08:06:07;;;;;;;;;;;;;;;17.00;100.00;100543.81;5084605;28;19925;-81
2021/09/02 08:08:34;;;;;;;;;;;;;;;17.02;100.00;100547.84;5067972;28;19929;-80
2021/09/02 08:11:01;;;;;;;;;;;;;;;17.01;100.00;100551.88;5101279;28;20419;-80
2021/09/02 08:13:28;;;;;;;;;;;;;;;16.88;100.00;100538.81;5051292;28;19924;-80
2021/09/02 08:15:56;;;;;;;;;;;;;;;16.87;100.00;100543.69;5067887;28;20380;-81
2021/09/02 08:18:23;;;;;;;;;;;;;;;16.89;100.00;100546.06;5067657;28;19986;-80
2021/09/02 08:20:50;;;;;;;;;;;;;;;16.97;100.00;100548.31;5067686;28;19925;-82
2021/09/02 08:23:17;;;;;;;;;;;;;;;16.92;100.00;100542.38;5084706;28;20396;-81
2021/09/02 08:25:45;;;;;;;;;;;;;;;16.69;100.00;100556.50;5068851;28;19925;-81
2021/09/02 08:28:12;;;;;;;;;;;;;;;16.91;100.00;100552.06;5084265;28;20404;-80
2021/09/02 08:30:39;;;;;;;;;;;;;;;16.72;100.00;100558.47;5068967;28;19925;-81
2021/09/02 08:33:07;;;;;;;;;;;;;;;16.91;100.00;100552.88;5084564;28;20296;-81
2021/09/02 08:35:34;;;;;;;;;;;;;;;16.98;100.00;100551.94;5067567;28;20392;-82
2021/09/02 08:38:02;;;;;;;;;;;;;;;16.48;100.00;100551.22;5068082;28;20015;-82
2021/09/02 08:43:06;;;;;;;;;;;;;;;16.07;100.00;100566.28;5089929;28;19916;-81
2021/09/02 08:45:34;;;;;;;;;;;;;;;16.67;100.00;100553.28;5089982;28;19925;-81
2021/09/02 08:48:02;;;;;;;;;;;;;;;16.77;100.00;100549.47;5057582;28;19972;-82
2021/09/02 08:50:31;;;;;;;;;;;;;;;17.17;100.00;100554.00;5088495;28;20451;-81
2021/09/02 08:52:59;;;;;;;;;;;;;;;17.12;100.00;100554.47;5067601;28;19950;-82
2021/09/02 08:55:26;;;;;;;;;;;;;;;17.36;100.00;100556.03;5105329;28;19924;-82
2021/09/02 08:57:54;;;;;;;;;;;;;;;17.34;100.00;100552.88;5082101;28;19931;-81
2021/09/02 09:00:23;;;;;;;;;;;;;;;17.31;100.00;100553.72;5068029;28;19974;-78
2021/09/02 09:02:58;;;;;;;;;;;;;;;17.34;100.00;100541.56;5067975;28;19929;-80
2021/09/02 09:05:27;;;;;;;;;;;;;;;17.55;100.00;100541.16;5083181;28;19986;-79
2021/09/02 09:07:54;;;;;;;;;;;;;;;17.07;100.00;100538.84;5073994;28;20437;-79
2021/09/02 09:10:26;;;;;;;;;;;;;;;16.68;100.00;100549.25;5087858;28;20011;-80
2021/09/02 09:12:57;;;;;;;;;;;;;;;16.51;100.00;100548.31;5071809;28;19947;-80
2021/09/02 09:15:32;;;;;;;;;;;;;;;16.92;100.00;100551.63;5081947;28;19994;-81
2021/09/02 09:18:21;;;;;;;;;;;;;;;17.07;100.00;100552.97;5104756;28;19931;-80
2021/09/02 09:21:05;;;;;;;;;;;;;;;17.35;100.00;100546.78;5087841;28;19929;-80
2021/09/02 09:23:51;;;;;;;;;;;;;;;16.98;100.00;100552.72;5087898;28;19925;-80
2021/09/02 09:26:18;;;;;;;;;;;;;;;17.18;100.00;100541.47;5083430;28;19933;-79
2021/09/02 09:28:45;;;;;;;;;;;;;;;17.54;100.00;100545.19;5070109;28;19994;-77
2021/09/02 09:31:27;;;;;;;;;;;;;;;17.07;100.00;100547.31;5069155;28;19932;-77
2021/09/02 09:33:56;;;;;;;;;;;;;;;17.54;100.00;100545.19;5070828;28;19928;-78
2021/09/02 09:36:28;;;;;;;;;;;;;;;17.34;100.00;100530.25;5071662;28;19982;-77
2021/09/02 09:38:56;;;;;;;;;;;;;;;17.38;100.00;100526.13;5070955;28;19925;-77
2021/09/02 09:41:43;;;;;;;;;;;;;;;17.29;100.00;100530.75;5037625;28;20027;-79
2021/09/02 09:44:19;;;;;;;;;;;;;;;17.47;100.00;100534.84;5069624;28;19932;-77
2021/09/02 09:47:07;;;;;;;;;;;;;;;17.47;100.00;100534.03;5073025;28;19947;-79
2021/09/02 09:49:46;;;;;;;;;;;;;;;17.73;100.00;100533.91;5070177;28;19929;-78
2021/09/02 09:52:17;;;;;;;;;;;;;;;17.66;100.00;100536.84;5068773;28;19932;-78
2021/09/02 09:54:45;;;;;;;;;;;;;;;18.10;100.00;100526.97;5063334;28;19935;-78
2021/09/02 09:57:12;;;;;;;;;;;;;;;18.14;100.00;100521.25;5057195;28;19925;-79
2021/09/02 09:59:41;;;;;;;;;;;;;;;18.38;100.00;100531.19;5074698;28;19928;-79
2021/09/02 10:02:08;;;;;;;;;;;;;;;17.90;100.00;100526.25;5074657;28;20023;-79
2021/09/02 10:04:36;;;;;;;;;;;;;;;17.71;100.00;100532.72;5090595;28;19928;-77
2021/09/02 10:07:04;;;;;;;;;;;;;;;18.04;100.00;100534.38;5057142;28;19931;-77
2021/09/02 10:09:34;;;;;;;;;;;;;;;17.75;100.00;100524.97;5090298;28;20392;-78
2021/09/02 10:12:02;;;;;;;;;;;;;;;17.66;100.00;100531.19;5073594;28;19931;-78
2021/09/02 10:14:29;;;;;;;;;;;;;;;18.04;100.00;100523.06;5074513;28;19931;-78
2021/09/02 10:16:57;;;;;;;;;;;;;;;18.10;100.00;100526.19;5072125;28;19936;-79
2021/09/02 10:19:28;;;;;;;;;;;;;;;18.35;100.00;100515.88;5070994;28;20002;-79
2021/09/02 10:21:57;;;;;;;;;;;;;;;18.50;100.00;100511.47;5055263;28;19961;-79
2021/09/02 10:24:41;;;;;;;;;;;;;;;18.65;100.00;100506.25;5070636;28;19931;-79
2021/09/02 10:27:17;;;;;;;;;;;;;;;18.33;100.00;100506.22;5072365;28;20439;-79
2021/09/02 10:29:45;;;;;;;;;;;;;;;18.32;100.00;100511.09;5070992;28;19993;-79
2021/09/02 10:32:26;;;;;;;;;;;;;;;18.44;100.00;100509.63;5069325;28;20011;-79
2021/09/02 10:34:54;;;;;;;;;;;;;;;18.07;100.00;100515.75;5060873;28;19924;-79
2021/09/02 10:37:44;;;;;;;;;;;;;;;18.26;100.00;100512.88;5055774;28;19947;-79
2021/09/02 10:40:17;;;;;;;;;;;;;;;18.02;100.00;100513.44;5048478;28;19925;-80
2021/09/02 10:42:46;;;;;;;;;;;;;;;18.17;100.00;100521.16;5054705;28;19931;-79
2021/09/02 10:45:33;;;;;;;;;;;;;;;18.50;100.00;100517.16;5077288;28;19925;-79
2021/09/02 10:48:06;;;;;;;;;;;;;;;18.43;100.00;100523.00;5057718;28;19925;-78
2021/09/02 10:50:37;;;;;;;;;;;;;;;18.06;100.00;100520.63;5070262;28;19959;-78
2021/09/02 10:53:11;;;;;;;;;;;;;;;18.28;100.00;100520.91;5067377;28;20383;-78
2021/09/02 10:55:40;;;;;;;;;;;;;;;18.26;100.00;100512.88;5059934;28;19929;-80
2021/09/02 10:58:09;;;;;;;;;;;;;;;18.70;100.00;100509.34;5069847;28;20010;-79
2021/09/02 11:00:37;;;;;;;;;;;;;;;18.70;100.00;100506.53;5060336;28;19925;-80
2021/09/02 11:03:11;;;;;;;;;;;;;;;18.48;100.00;100502.63;5060574;28;19924;-79
2021/09/02 11:05:43;;;;;;;;;;;;;;;18.58;100.00;100507.25;5041911;28;20024;-77
2021/09/02 11:08:10;;;;;;;;;;;;;;;18.14;100.00;100505.06;5055543;28;19929;-79
2021/09/02 11:10:37;;;;;;;;;;;;;;;18.22;100.00;100505.69;5057375;28;20007;-78
2021/09/02 11:13:05;;;;;;;;;;;;;;;18.50;100.00;100508.66;5060529;28;19932;-81
2021/09/02 11:15:35;;;;;;;;;;;;;;;18.69;100.00;100507.75;5054984;28;19931;-79
2021/09/02 11:18:04;;;;;;;;;;;;;;;18.44;100.00;100504.75;5068399;28;20039;-79
2021/09/02 11:20:46;;;;;;;;;;;;;;;18.31;100.00;100503.06;5052661;28;19932;-79
2021/09/02 11:23:17;;;;;;;;;;;;;;;18.35;100.00;100493.25;5056699;28;20400;-79
2021/09/02 11:25:51;;;;;;;;;;;;;;;18.61;100.00;100492.19;5055665;28;19956;-79
2021/09/02 11:28:20;;;;;;;;;;;;;;;18.88;100.00;100498.34;5059943;28;19924;-79
2021/09/02 11:30:51;;;;;;;;;;;;;;;18.97;100.00;100478.69;5035416;28;19925;-79
2021/09/02 11:33:19;;;;;;;;;;;;;;;18.80;100.00;100485.59;5088270;28;19934;-79
2021/09/02 11:35:56;;;;;;;;;;;;;;;18.77;100.00;100485.69;5052187;28;19964;-79
2021/09/02 11:38:24;;;;;;;;;;;;;;;19.14;100.00;100480.22;5055466;28;20011;-79
2021/09/02 11:40:51;;;;;;;;;;;;;;;18.75;100.00;100486.13;5056245;28;20006;-80
2021/09/02 11:43:20;;;;;;;;;;;;;;;19.16;100.00;100491.88;5022050;28;20460;-79
2021/09/02 11:45:51;;;;;;;;;;;;;;;18.88;100.00;100483.38;5055195;28;19925;-79
2021/09/02 11:48:19;;;;;;;;;;;;;;;19.06;100.00;100483.69;5054502;28;19928;-79
2021/09/02 11:50:58;;;;;;;;;;;;;;;19.46;100.00;100488.59;5055174;28;19925;-80
2021/09/02 11:54:46;;;;;;;;;;;;;;;19.54;100.00;100477.84;5090121;28;19912;-80
2021/09/02 11:57:23;;;;;;;;;;;;;;;19.41;100.00;100475.00;5089886;28;20327;-79
2021/09/02 11:59:50;;;;;;;;;;;;;;;19.49;100.00;100479.19;5105946;28;19924;-80
2021/09/02 12:02:17;;;;;;;;;;;;;;;19.82;100.00;100481.84;5087919;28;20329;-81
2021/09/02 12:04:47;;;;;;;;;;;;;;;20.18;100.00;100471.00;5076602;28;19971;-80
2021/09/02 12:07:14;;;;;;;;;;;;;;;20.41;100.00;100464.94;5054892;28;20347;-80
2021/09/02 12:09:43;;;;;;;;;;;;;;;20.66;100.00;100456.38;5068672;28;19929;-80
2021/09/02 12:12:28;;;;;;;;;;;;;;;20.43;100.00;100456.78;5071724;28;19936;-79
2021/09/02 12:14:55;;;;;;;;;;;;;;;19.65;100.00;100453.59;5071819;28;19925;-79
2021/09/02 12:17:32;;;;;;;;;;;;;;;19.36;100.00;100449.22;5086764;28;19929;-80
2021/09/02 12:20:00;;;;;;;;;;;;;;;19.82;100.00;100450.66;5069279;28;19932;-82
2021/09/02 12:22:32;;;;;;;;;;;;;;;19.76;100.00;100443.97;5066132;28;20073;-82
2021/09/02 12:25:10;;;;;;;;;;;;;;;19.99;100.00;100441.59;5052795;28;19924;-82
2021/09/02 12:27:47;;;;;;;;;;;;;;;20.27;100.00;100454.88;5085096;28;20335;-83
2021/09/02 12:30:14;;;;;;;;;;;;;;;20.48;100.00;100439.16;5075638;28;20010;-83
2021/09/02 12:32:42;;;;;;;;;;;;;;;20.84;100.00;100445.97;5071867;28;19932;-84
2021/09/02 12:35:11;;;;;;;;;;;;;;;20.91;100.00;100436.41;5065195;28;20002;-83
2021/09/02 12:37:38;;;;;;;;;;;;;;;20.96;100.00;100447.22;5069015;28;20446;-83
2021/09/02 12:40:26;;;;;;;;;;;;;;;21.08;100.00;100438.59;5066554;28;20002;-85
2021/09/02 12:42:53;;;;;;;;;;;;;;;21.16;100.00;100430.59;5048331;28;19932;-83